createdAt,value
2017-10-20T00:00:14.545Z,7.60
2017-10-20T00:02:42.863Z,7.50
2017-10-20T00:05:10.420Z,7.70
2017-10-20T00:07:37.953Z,7.20
2017-10-20T00:10:05.510Z,7.82
2017-10-20T00:12:33.053Z,7.75
2017-10-20T00:15:01.368Z,7.45
2017-10-20T00:17:28.893Z,6.87
2017-10-20T00:19:57.221Z,7.28
2017-10-20T00:22:24.758Z,6.93
2017-10-20T00:24:52.318Z,7.68
2017-10-20T00:27:19.846Z,6.85
2017-10-20T00:29:48.146Z,7.55
2017-10-20T00:32:15.928Z,7.50
2017-10-20T00:34:43.461Z,7.20
2017-10-20T00:37:11.016Z,7.07
2017-10-20T00:39:39.307Z,7.25
2017-10-20T00:42:06.861Z,6.70
2017-10-20T00:44:34.399Z,8.20
2017-10-20T00:47:02.737Z,6.50
2017-10-20T00:49:30.298Z,7.10
2017-10-20T00:51:57.848Z,6.72
2017-10-20T00:54:25.381Z,8.10
2017-10-20T00:56:52.937Z,7.43
2017-10-20T00:59:20.476Z,8.43
2017-10-20T01:01:48.808Z,7.68
2017-10-20T01:04:16.338Z,7.25
2017-10-20T01:06:43.858Z,8.13
2017-10-20T01:09:11.409Z,8.75
2017-10-20T01:11:38.937Z,7.32
2017-10-20T01:14:06.488Z,7.32
2017-10-20T01:16:34.034Z,6.55
2017-10-20T01:19:01.596Z,7.23
2017-10-20T01:21:29.141Z,7.03
2017-10-20T01:23:57.453Z,7.35
2017-10-20T01:26:25.000Z,6.32
2017-10-20T01:28:52.570Z,6.90
2017-10-20T01:31:20.100Z,7.55
2017-10-20T01:33:47.666Z,6.90
2017-10-20T01:36:15.199Z,7.65
2017-10-20T01:38:43.544Z,6.78
2017-10-20T01:41:11.072Z,6.95
2017-10-20T01:43:38.617Z,7.55
2017-10-20T01:46:06.165Z,6.62
2017-10-20T01:48:34.465Z,6.95
2017-10-20T01:51:02.025Z,7.70
2017-10-20T01:53:29.552Z,7.57
2017-10-20T01:55:57.101Z,7.25
2017-10-20T01:58:24.641Z,6.60
2017-10-20T02:00:52.193Z,7.30
2017-10-20T02:03:19.737Z,6.90
2017-10-20T02:05:47.299Z,7.15
2017-10-20T02:08:14.840Z,7.95
2017-10-20T02:10:42.398Z,7.20
2017-10-20T02:13:09.944Z,6.97
2017-10-20T02:15:38.250Z,7.28
2017-10-20T02:18:05.808Z,6.57
2017-10-20T02:20:33.336Z,7.30
2017-10-20T02:23:01.653Z,6.65
2017-10-20T02:25:29.190Z,6.43
2017-10-20T02:27:56.754Z,5.90
2017-10-20T02:30:24.289Z,6.87
2017-10-20T02:32:52.600Z,7.80
2017-10-20T02:35:20.273Z,6.57
2017-10-20T02:37:47.892Z,7.10
2017-10-20T02:40:16.091Z,6.70
2017-10-20T02:42:44.785Z,7.22
2017-10-20T02:45:12.364Z,6.20
2017-10-20T02:47:39.901Z,7.10
2017-10-20T02:50:07.457Z,7.05
2017-10-20T02:52:35.882Z,7.25
2017-10-20T02:55:04.318Z,6.47
2017-10-20T02:57:31.880Z,7.25
2017-10-20T03:00:00.218Z,6.03
2017-10-20T03:02:27.749Z,7.60
2017-10-20T03:04:56.077Z,6.47
2017-10-20T03:07:23.662Z,6.45
2017-10-20T03:09:51.968Z,6.80
2017-10-20T03:12:19.533Z,7.32
2017-10-20T03:14:47.070Z,6.65
2017-10-20T03:17:15.392Z,6.22
2017-10-20T03:19:42.946Z,5.95
2017-10-20T03:22:10.501Z,6.03
2017-10-20T03:24:38.053Z,5.50
2017-10-20T03:27:05.608Z,5.62
2017-10-20T03:29:33.167Z,5.85
2017-10-20T03:32:00.710Z,5.45
2017-10-20T03:34:28.265Z,6.05
2017-10-20T03:36:56.568Z,6.65
2017-10-20T03:39:24.114Z,5.40
2017-10-20T03:41:51.655Z,6.05
2017-10-20T03:44:19.980Z,6.20
2017-10-20T03:46:47.522Z,6.00
2017-10-20T03:49:15.081Z,5.80
2017-10-20T03:51:42.625Z,5.12
2017-10-20T03:54:10.919Z,6.00
2017-10-20T03:56:38.479Z,6.22
2017-10-20T03:59:06.128Z,5.30
2017-10-20T04:01:33.682Z,6.82
2017-10-20T04:04:01.226Z,5.60
2017-10-20T04:06:29.565Z,6.20
2017-10-20T04:08:57.117Z,5.85
2017-10-20T04:11:24.653Z,5.22
2017-10-20T04:13:52.985Z,6.30
2017-10-20T04:16:20.517Z,6.00
2017-10-20T04:18:48.127Z,7.65
2017-10-20T04:21:15.694Z,6.75
2017-10-20T04:23:43.502Z,5.82
2017-10-20T04:26:11.077Z,6.10
2017-10-20T04:28:38.644Z,6.62
2017-10-20T04:31:06.301Z,6.32
2017-10-20T04:33:34.648Z,6.10
2017-10-20T04:36:02.285Z,5.93
2017-10-20T04:38:29.820Z,6.23
2017-10-20T04:40:57.357Z,5.75
2017-10-20T04:43:24.913Z,6.30
2017-10-20T04:45:52.469Z,6.62
2017-10-20T04:48:19.997Z,5.45
2017-10-20T04:50:47.547Z,5.55
2017-10-20T04:53:15.857Z,6.45
2017-10-20T04:55:43.421Z,5.78
2017-10-20T04:58:11.762Z,7.60
2017-10-20T05:00:39.297Z,6.80
2017-10-20T05:03:06.845Z,7.75
2017-10-20T05:05:34.380Z,8.15
2017-10-20T05:08:02.673Z,7.68
2017-10-20T05:10:31.005Z,6.50
2017-10-20T05:12:58.563Z,7.70
2017-10-20T05:15:26.169Z,6.70
2017-10-20T05:17:53.710Z,7.18
2017-10-20T05:20:21.370Z,6.55
2017-10-20T05:22:48.907Z,7.43
2017-10-20T05:25:16.466Z,7.78
2017-10-20T05:27:43.994Z,7.37
2017-10-20T05:30:12.185Z,8.15
2017-10-20T05:32:39.833Z,8.63
2017-10-20T05:35:07.363Z,7.18
2017-10-20T05:37:34.917Z,6.90
2017-10-20T05:40:03.209Z,5.85
2017-10-20T05:42:30.773Z,5.50
2017-10-20T05:44:58.365Z,6.40
2017-10-20T05:47:25.926Z,5.62
2017-10-20T05:49:53.483Z,5.53
2017-10-20T05:52:21.045Z,6.62
2017-10-20T05:54:48.570Z,5.90
2017-10-20T05:57:16.887Z,6.05
2017-10-20T05:59:44.427Z,5.82
2017-10-20T06:02:12.622Z,7.43
2017-10-20T06:04:40.177Z,6.05
2017-10-20T06:07:07.700Z,5.90
2017-10-20T06:09:36.032Z,6.50
2017-10-20T06:12:03.561Z,6.82
2017-10-20T06:14:31.129Z,5.50
2017-10-20T06:16:58.657Z,6.25
2017-10-20T06:19:27.085Z,6.90
2017-10-20T06:21:54.620Z,5.68
2017-10-20T06:24:22.183Z,5.45
2017-10-20T06:26:50.790Z,6.30
2017-10-20T06:29:18.346Z,5.80
2017-10-20T06:31:45.906Z,5.85
2017-10-20T06:34:13.439Z,8.02
2017-10-20T06:36:40.989Z,7.50
2017-10-20T06:39:09.286Z,6.30
2017-10-20T06:41:36.853Z,8.40
2017-10-20T06:44:04.389Z,9.90
2017-10-20T06:46:31.932Z,9.57
2017-10-20T06:49:00.254Z,10.80
2017-10-20T06:51:27.785Z,10.13
2017-10-20T06:53:56.114Z,9.55
2017-10-20T06:56:23.661Z,9.35
2017-10-20T06:58:51.233Z,9.87
2017-10-20T07:01:18.777Z,11.03
2017-10-20T07:03:46.342Z,10.30
2017-10-20T07:06:13.875Z,8.60
2017-10-20T07:08:41.425Z,7.95
2017-10-20T07:11:09.042Z,6.78
2017-10-20T07:13:36.592Z,7.03
2017-10-20T07:16:04.158Z,4.70
2017-10-20T07:18:31.703Z,4.22
2017-10-20T07:20:59.905Z,4.57
2017-10-20T07:23:28.945Z,5.80
2017-10-20T07:25:56.515Z,4.78
2017-10-20T07:28:24.087Z,5.22
2017-10-20T07:30:51.668Z,5.10
2017-10-20T07:33:19.205Z,4.87
2017-10-20T07:35:46.751Z,4.63
2017-10-20T07:38:14.296Z,4.77
2017-10-20T07:40:41.829Z,5.20
2017-10-20T07:43:09.380Z,4.93
2017-10-20T07:45:36.916Z,4.30
2017-10-20T07:48:05.238Z,3.93
2017-10-20T07:50:32.780Z,5.23
2017-10-20T07:53:00.342Z,4.60
2017-10-20T07:55:27.872Z,4.83
2017-10-20T07:57:56.211Z,4.77
2017-10-20T08:00:23.730Z,5.67
2017-10-20T08:02:51.298Z,4.73
2017-10-20T08:05:18.826Z,4.43
2017-10-20T08:07:46.374Z,4.50
2017-10-20T08:10:13.921Z,4.50
2017-10-20T08:12:41.462Z,4.80
2017-10-20T08:15:09.036Z,4.70
2017-10-20T08:17:36.567Z,4.80
2017-10-20T08:20:04.994Z,4.70
2017-10-20T08:22:32.531Z,4.23
2017-10-20T08:25:00.173Z,4.60
2017-10-20T08:27:27.738Z,6.03
2017-10-20T08:29:55.289Z,4.23
2017-10-20T08:32:22.821Z,5.13
2017-10-20T08:34:51.109Z,4.10
2017-10-20T08:37:18.654Z,4.20
2017-10-20T08:39:46.958Z,5.17
2017-10-20T08:42:14.505Z,5.00
2017-10-20T08:44:42.034Z,4.50
2017-10-20T08:47:09.573Z,5.13
2017-10-20T08:49:37.137Z,5.37
2017-10-20T08:52:04.677Z,5.00
2017-10-20T08:54:32.250Z,4.67
2017-10-20T08:56:59.784Z,4.53
2017-10-20T08:59:27.333Z,4.13
2017-10-20T09:01:54.866Z,4.47
2017-10-20T09:04:23.201Z,4.20
2017-10-20T09:06:50.740Z,5.00
2017-10-20T09:09:18.301Z,5.00
2017-10-20T09:11:45.831Z,4.50
2017-10-20T09:14:13.382Z,4.10
2017-10-20T09:16:41.696Z,4.00
2017-10-20T09:19:09.252Z,4.10
2017-10-20T09:21:36.782Z,5.00
2017-10-20T09:24:05.077Z,4.63
2017-10-20T09:26:32.617Z,4.10
2017-10-20T09:29:00.918Z,4.90
2017-10-20T09:31:28.490Z,4.50
2017-10-20T09:33:56.042Z,5.00
2017-10-20T09:36:23.716Z,4.50
2017-10-20T09:38:51.283Z,3.93
2017-10-20T09:41:18.833Z,4.33
2017-10-20T09:43:46.393Z,4.27
2017-10-20T09:46:13.952Z,4.10
2017-10-20T09:48:42.281Z,3.40
2017-10-20T09:51:09.840Z,4.00
2017-10-20T09:53:37.373Z,3.83
2017-10-20T09:56:04.901Z,3.60
2017-10-20T09:58:33.221Z,3.90
2017-10-20T10:01:01.527Z,2.97
2017-10-20T10:03:29.075Z,3.40
2017-10-20T10:05:56.597Z,2.40
2017-10-20T10:08:24.133Z,2.67
2017-10-20T10:10:51.695Z,3.30
2017-10-20T10:13:20.010Z,3.60
2017-10-20T10:15:47.580Z,2.97
2017-10-20T10:18:15.130Z,3.17
2017-10-20T10:20:42.662Z,3.00
2017-10-20T10:23:10.199Z,3.13
2017-10-20T10:25:38.484Z,3.33
2017-10-20T10:28:06.806Z,3.30
2017-10-20T10:30:34.337Z,3.07
2017-10-20T10:33:02.647Z,3.23
2017-10-20T10:35:30.194Z,3.27
2017-10-20T10:37:58.511Z,3.00
2017-10-20T10:40:26.082Z,3.40
2017-10-20T10:42:53.620Z,2.70
2017-10-20T10:45:21.923Z,3.40
2017-10-20T10:47:49.473Z,2.97
2017-10-20T10:50:17.005Z,3.17
2017-10-20T10:52:45.313Z,3.00
2017-10-20T10:55:13.866Z,3.13
2017-10-20T10:57:42.187Z,3.37
2017-10-20T11:00:09.728Z,3.30
2017-10-20T11:02:37.277Z,2.70
2017-10-20T11:05:06.365Z,2.70
2017-10-20T11:07:46.487Z,3.20
2017-10-20T11:10:25.875Z,2.80
2017-10-20T11:13:00.463Z,3.10
2017-10-20T11:15:28.002Z,3.70
2017-10-20T11:17:55.558Z,3.03
2017-10-20T11:20:23.098Z,3.17
2017-10-20T11:22:50.621Z,3.10
2017-10-20T11:25:18.954Z,4.27
2017-10-20T11:27:46.481Z,3.17
2017-10-20T11:30:14.033Z,3.03
2017-10-20T11:32:41.576Z,3.87
2017-10-20T11:35:09.889Z,4.20
2017-10-20T11:37:37.421Z,3.80
2017-10-20T11:40:04.986Z,3.30
2017-10-20T11:42:32.512Z,3.53
2017-10-20T11:45:00.061Z,3.47
2017-10-20T11:47:27.608Z,4.10
2017-10-20T11:49:55.173Z,4.00
2017-10-20T11:52:22.912Z,3.80
2017-10-20T11:54:50.441Z,3.70
2017-10-20T11:57:18.014Z,4.20
2017-10-20T11:59:45.555Z,3.93
2017-10-20T12:02:13.921Z,3.60
2017-10-20T12:04:42.258Z,4.00
2017-10-20T12:07:09.786Z,4.30
2017-10-20T12:09:37.351Z,4.40
2017-10-20T12:12:04.896Z,3.60
2017-10-20T12:14:32.441Z,4.27
2017-10-20T12:17:00.762Z,3.90
2017-10-20T12:19:28.304Z,4.20
2017-10-20T12:21:55.988Z,3.77
2017-10-20T12:24:23.533Z,4.40
2017-10-20T12:26:51.087Z,4.10
2017-10-20T12:29:18.609Z,4.07
2017-10-20T12:31:46.156Z,4.27
2017-10-20T12:34:13.693Z,4.57
2017-10-20T12:36:41.996Z,5.23
2017-10-20T12:39:09.557Z,5.20
2017-10-20T12:41:37.083Z,4.57
2017-10-20T12:44:05.392Z,4.30
2017-10-20T12:46:32.919Z,4.37
2017-10-20T12:49:01.244Z,4.73
2017-10-20T12:51:28.801Z,4.30
2017-10-20T12:53:56.369Z,4.13
2017-10-20T12:56:23.903Z,4.13
2017-10-20T12:58:51.453Z,4.17
2017-10-20T13:01:18.986Z,4.30
2017-10-20T13:03:46.546Z,4.57
2017-10-20T13:06:14.082Z,4.37
2017-10-20T13:08:41.631Z,4.40
2017-10-20T13:11:09.278Z,4.57
2017-10-20T13:13:36.911Z,4.10
2017-10-20T13:16:04.478Z,4.50
2017-10-20T13:18:32.016Z,4.57
2017-10-20T13:21:00.336Z,4.77
2017-10-20T13:23:27.885Z,4.30
2017-10-20T13:25:55.453Z,4.40
2017-10-20T13:28:22.978Z,4.50
2017-10-20T13:30:51.300Z,4.60
2017-10-20T13:33:18.853Z,4.50
2017-10-20T13:35:46.429Z,4.73
2017-10-20T13:38:13.990Z,4.37
2017-10-20T13:40:41.541Z,4.70
2017-10-20T13:43:09.084Z,5.10
2017-10-20T13:45:36.619Z,4.10
2017-10-20T13:48:04.939Z,5.07
2017-10-20T13:50:32.513Z,4.33
2017-10-20T13:53:00.070Z,5.00
2017-10-20T13:55:27.646Z,5.53
2017-10-20T13:57:55.207Z,5.10
2017-10-20T14:00:22.736Z,4.60
2017-10-20T14:02:50.333Z,4.47
2017-10-20T14:05:17.861Z,4.20
2017-10-20T14:07:45.407Z,4.20
2017-10-20T14:10:12.947Z,3.87
2017-10-20T14:12:40.497Z,4.80
2017-10-20T14:15:08.050Z,4.17
2017-10-20T14:17:35.622Z,4.13
2017-10-20T14:20:03.948Z,3.47
2017-10-20T14:22:31.506Z,3.83
2017-10-20T14:24:59.061Z,4.40
2017-10-20T14:27:26.612Z,3.80
2017-10-20T14:29:54.154Z,4.13
2017-10-20T14:32:22.468Z,4.60
2017-10-20T14:34:51.001Z,3.83
2017-10-20T14:37:19.297Z,4.53
2017-10-20T14:39:47.628Z,4.70
2017-10-20T14:42:15.181Z,4.80
2017-10-20T14:44:42.753Z,4.93
2017-10-20T14:47:10.301Z,5.90
2017-10-20T14:49:37.856Z,4.93
2017-10-20T14:52:05.419Z,4.30
2017-10-20T14:54:32.963Z,5.27
2017-10-20T14:57:00.512Z,5.13
2017-10-20T14:59:28.072Z,5.70
2017-10-20T15:01:55.649Z,5.17
2017-10-20T15:04:23.190Z,4.87
2017-10-20T15:06:50.765Z,5.00
2017-10-20T15:09:18.300Z,4.63
2017-10-20T15:11:45.854Z,4.90
2017-10-20T15:14:13.390Z,4.57
2017-10-20T15:16:40.939Z,5.57
2017-10-20T15:19:08.488Z,3.90
2017-10-20T15:21:36.037Z,4.23
2017-10-20T15:24:03.602Z,4.27
2017-10-20T15:26:31.145Z,4.20
2017-10-20T15:28:58.805Z,5.60
2017-10-20T15:31:26.349Z,4.60
2017-10-20T15:33:53.906Z,4.57
2017-10-20T15:36:21.449Z,4.57
2017-10-20T15:38:49.744Z,5.00
2017-10-20T15:41:17.305Z,4.37
2017-10-20T15:43:44.838Z,4.90
2017-10-20T15:46:13.161Z,4.90
2017-10-20T15:48:40.691Z,5.10
2017-10-20T15:51:08.234Z,4.50
2017-10-20T15:53:36.525Z,5.47
2017-10-20T15:56:04.069Z,5.40
2017-10-20T15:58:31.623Z,4.87
2017-10-20T16:00:59.176Z,5.20
2017-10-20T16:03:26.727Z,5.23
2017-10-20T16:05:54.265Z,5.40
2017-10-20T16:08:21.820Z,5.23
2017-10-20T16:10:49.381Z,5.10
2017-10-20T16:13:16.954Z,5.60
2017-10-20T16:15:44.497Z,4.73
2017-10-20T16:18:12.048Z,5.43
2017-10-20T16:20:39.586Z,4.77
2017-10-20T16:23:11.662Z,5.43
2017-10-20T16:25:40.005Z,6.30
2017-10-20T16:28:07.553Z,4.17
2017-10-20T16:30:35.115Z,4.60
2017-10-20T16:33:02.688Z,5.90
2017-10-20T16:35:30.319Z,5.27
2017-10-20T16:37:57.850Z,4.90
2017-10-20T16:40:26.182Z,4.80
2017-10-20T16:42:53.709Z,4.70
2017-10-20T16:45:21.254Z,4.87
2017-10-20T16:47:48.810Z,6.10
2017-10-20T16:50:16.349Z,5.07
2017-10-20T16:52:44.648Z,5.53
2017-10-20T16:55:12.193Z,5.90
2017-10-20T16:57:40.491Z,5.77
2017-10-20T17:00:08.052Z,5.47
2017-10-20T17:02:35.584Z,5.30
2017-10-20T17:05:03.917Z,5.60
2017-10-20T17:07:31.510Z,5.40
2017-10-20T17:09:59.802Z,5.43
2017-10-20T17:12:27.334Z,5.03
2017-10-20T17:14:54.898Z,5.80
2017-10-20T17:17:22.437Z,5.60
2017-10-20T17:19:49.977Z,5.33
2017-10-20T17:22:17.528Z,4.83
2017-10-20T17:24:45.056Z,4.70
2017-10-20T17:27:13.366Z,5.37
2017-10-20T17:29:40.948Z,5.30
2017-10-20T17:32:08.489Z,5.30
2017-10-20T17:34:36.026Z,4.80
2017-10-20T17:37:05.294Z,5.40
2017-10-20T17:39:32.864Z,5.73
2017-10-20T17:42:01.284Z,5.20
2017-10-20T17:44:28.837Z,5.00
2017-10-20T17:46:56.401Z,5.07
2017-10-20T17:49:23.925Z,5.87
2017-10-20T17:51:52.224Z,5.30
2017-10-20T17:54:19.812Z,5.43
2017-10-20T17:56:47.345Z,6.33
2017-10-20T17:59:14.890Z,5.80
2017-10-20T18:01:42.422Z,5.47
2017-10-20T18:04:09.984Z,5.43
2017-10-20T18:06:38.329Z,5.10
2017-10-20T18:09:05.885Z,5.70
2017-10-20T18:11:33.435Z,5.33
2017-10-20T18:14:01.003Z,4.80
2017-10-20T18:16:28.569Z,6.27
2017-10-20T18:18:56.103Z,5.53
2017-10-20T18:21:23.789Z,5.63
2017-10-20T18:23:51.449Z,5.33
2017-10-20T18:26:19.002Z,6.30
2017-10-20T18:28:46.571Z,5.30
2017-10-20T18:31:14.137Z,6.17
2017-10-20T18:33:41.750Z,5.67
2017-10-20T18:36:10.076Z,5.77
2017-10-20T18:38:37.618Z,6.00
2017-10-20T18:41:05.309Z,6.10
2017-10-20T18:43:32.914Z,5.53
2017-10-20T18:46:01.272Z,6.23
2017-10-20T18:48:29.608Z,6.18
2017-10-20T18:50:57.137Z,6.10
2017-10-20T18:53:24.703Z,5.50
2017-10-20T18:55:52.257Z,5.80
2017-10-20T18:58:19.793Z,6.10
2017-10-20T19:00:47.377Z,6.70
2017-10-20T19:03:15.701Z,6.63
2017-10-20T19:05:43.224Z,7.00
2017-10-20T19:08:10.778Z,6.20
2017-10-20T19:10:38.361Z,6.68
2017-10-20T19:13:05.905Z,7.40
2017-10-20T19:15:33.478Z,6.47
2017-10-20T19:18:01.014Z,6.30
2017-10-20T19:20:29.322Z,6.30
2017-10-20T19:22:56.913Z,6.17
2017-10-20T19:25:24.465Z,6.90
2017-10-20T19:27:52.793Z,7.10
2017-10-20T19:30:21.096Z,6.63
2017-10-20T19:32:48.651Z,6.90
2017-10-20T19:35:16.215Z,6.30
2017-10-20T19:37:43.792Z,6.73
2017-10-20T19:40:11.333Z,6.70
2017-10-20T19:42:38.897Z,6.77
2017-10-20T19:45:06.448Z,6.80
2017-10-20T19:47:34.011Z,6.00
2017-10-20T19:50:01.554Z,6.90
2017-10-20T19:52:29.085Z,6.80
2017-10-20T19:54:57.420Z,6.80
2017-10-20T19:57:24.989Z,6.43
2017-10-20T19:59:52.546Z,6.00
2017-10-20T20:02:20.096Z,6.30
2017-10-20T20:04:47.674Z,5.57
2017-10-20T20:07:15.202Z,5.87
2017-10-20T20:09:42.765Z,7.17
2017-10-20T20:12:10.300Z,6.07
2017-10-20T20:14:37.946Z,6.80
2017-10-20T20:17:05.514Z,5.70
2017-10-20T20:19:33.090Z,7.20
2017-10-20T20:22:00.625Z,6.67
2017-10-20T20:24:28.200Z,6.60
2017-10-20T20:26:55.720Z,6.17
2017-10-20T20:29:24.405Z,6.70
2017-10-20T20:31:55.521Z,6.90
2017-10-20T20:34:23.569Z,6.80
2017-10-20T20:36:51.145Z,6.30
2017-10-20T20:39:18.683Z,6.53
2017-10-20T20:41:46.248Z,7.60
2017-10-20T20:44:13.785Z,6.73
2017-10-20T20:46:41.345Z,6.60
2017-10-20T20:49:08.883Z,7.00
2017-10-20T20:51:37.195Z,7.80
2017-10-20T20:54:04.746Z,6.82
2017-10-20T20:56:32.309Z,6.70
2017-10-20T20:58:59.868Z,7.57
2017-10-20T21:01:27.403Z,6.97
2017-10-20T21:03:55.733Z,5.95
2017-10-20T21:06:23.265Z,7.12
2017-10-20T21:08:50.817Z,6.95
2017-10-20T21:11:18.378Z,7.93
2017-10-20T21:13:45.956Z,6.60
2017-10-20T21:16:13.488Z,7.07
2017-10-20T21:18:41.058Z,7.62
2017-10-20T21:21:08.609Z,7.30
2017-10-20T21:23:36.164Z,6.60
2017-10-20T21:26:03.703Z,7.62
2017-10-20T21:28:32.034Z,6.68
2017-10-20T21:30:59.565Z,7.10
2017-10-20T21:33:27.089Z,6.78
2017-10-20T21:35:54.658Z,7.37
2017-10-20T21:38:22.197Z,7.60
2017-10-20T21:40:49.757Z,7.50
2017-10-20T21:43:17.286Z,7.80
2017-10-20T21:45:44.837Z,8.73
2017-10-20T21:48:12.373Z,7.47
2017-10-20T21:50:40.705Z,8.17
2017-10-20T21:53:08.237Z,7.57
2017-10-20T21:55:35.804Z,8.87
2017-10-20T21:58:03.342Z,8.43
2017-10-20T22:00:30.924Z,9.00
2017-10-20T22:02:58.497Z,7.75
2017-10-20T22:05:26.048Z,8.57
2017-10-20T22:07:53.614Z,8.80
2017-10-20T22:10:21.175Z,7.43
2017-10-20T22:12:48.694Z,7.57
2017-10-20T22:15:16.250Z,7.72
2017-10-20T22:17:44.668Z,7.50
2017-10-20T22:20:12.217Z,8.50
2017-10-20T22:22:39.768Z,8.10
2017-10-20T22:25:07.304Z,8.85
2017-10-20T22:27:35.658Z,7.20
2017-10-20T22:30:03.208Z,7.80
2017-10-20T22:32:30.760Z,8.15
2017-10-20T22:34:58.318Z,7.47
2017-10-20T22:37:25.857Z,9.07
2017-10-20T22:39:53.440Z,8.05
2017-10-20T22:42:21.005Z,7.75
2017-10-20T22:44:48.558Z,8.15
2017-10-20T22:47:16.104Z,8.00
2017-10-20T22:49:43.685Z,8.65
2017-10-20T22:52:11.220Z,8.23
2017-10-20T22:54:38.803Z,7.90
2017-10-20T22:57:06.370Z,8.05
2017-10-20T22:59:33.941Z,7.07
2017-10-20T23:02:02.275Z,7.90
2017-10-20T23:04:29.802Z,8.40
2017-10-20T23:06:58.129Z,7.43
2017-10-20T23:09:25.677Z,8.00
2017-10-20T23:11:53.236Z,7.45
2017-10-20T23:14:20.797Z,7.47
2017-10-20T23:16:48.377Z,7.95
2017-10-20T23:19:15.918Z,7.90
2017-10-20T23:21:43.466Z,8.70
2017-10-20T23:24:11.036Z,7.95
2017-10-20T23:26:38.595Z,8.68
2017-10-20T23:29:06.136Z,7.85
2017-10-20T23:31:33.701Z,11.65
2017-10-20T23:34:01.245Z,14.85
2017-10-20T23:36:28.788Z,10.45
2017-10-20T23:38:57.114Z,8.57
2017-10-20T23:41:24.678Z,10.07
2017-10-20T23:43:52.240Z,8.65
2017-10-20T23:46:19.774Z,8.68
2017-10-20T23:48:47.353Z,8.30
2017-10-20T23:51:14.929Z,7.87
2017-10-20T23:53:42.494Z,7.85
2017-10-20T23:56:10.136Z,7.85
2017-10-20T23:58:37.702Z,8.38
